createdAt,value
2019-04-25T00:00:55.884Z,80.85
2019-04-25T00:01:55.903Z,81.43
2019-04-25T00:02:55.853Z,81.53
2019-04-25T00:03:55.840Z,81.02
2019-04-25T00:04:55.851Z,81.02
2019-04-25T00:05:55.820Z,81.53
2019-04-25T00:06:55.822Z,82.45
2019-04-25T00:07:55.810Z,82.45
2019-04-25T00:08:55.790Z,82.75
2019-04-25T00:09:55.795Z,82.35
2019-04-25T00:10:55.777Z,81.53
2019-04-25T00:11:55.754Z,81.57
2019-04-25T00:12:55.753Z,81.57
2019-04-25T00:13:55.733Z,81.73
2019-04-25T00:14:55.722Z,81.53
2019-04-25T00:15:55.712Z,81.05
2019-04-25T00:16:55.703Z,81.73
2019-04-25T00:17:55.690Z,81.57
2019-04-25T00:18:55.705Z,82.49
2019-04-25T00:19:55.680Z,81.43
2019-04-25T00:20:55.675Z,81.84
2019-04-25T00:21:55.666Z,81.84
2019-04-25T00:22:55.646Z,81.53
2019-04-25T00:23:55.625Z,81.12
2019-04-25T00:24:55.625Z,81.02
2019-04-25T00:25:55.621Z,81.02
2019-04-25T00:26:55.603Z,81.43
2019-04-25T00:27:55.583Z,82.14
2019-04-25T00:28:55.581Z,80.91
2019-04-25T00:29:55.560Z,80.41
2019-04-25T00:30:55.562Z,80.82
2019-04-25T00:31:55.539Z,81.43
2019-04-25T00:32:55.530Z,81.53
2019-04-25T00:33:55.521Z,80.98
2019-04-25T00:34:55.507Z,80.51
2019-04-25T00:35:55.500Z,80.16
2019-04-25T00:36:55.496Z,80.91
2019-04-25T00:37:55.483Z,81.59
2019-04-25T00:38:55.465Z,80.68
2019-04-25T00:39:55.480Z,80.57
2019-04-25T00:40:55.442Z,80.07
2019-04-25T00:41:55.436Z,80.47
2019-04-25T00:42:55.435Z,80.27
2019-04-25T00:43:55.412Z,80.47
2019-04-25T00:44:55.400Z,80.37
2019-04-25T00:45:55.398Z,80.68
2019-04-25T00:46:56.799Z,81.18
2019-04-25T00:47:55.369Z,81.02
2019-04-25T00:48:55.375Z,80.91
2019-04-25T00:49:55.357Z,81.43
2019-04-25T00:50:55.334Z,82.14
2019-04-25T00:51:55.322Z,82.35
2019-04-25T00:52:55.312Z,83.57
2019-04-25T00:53:55.301Z,81.63
2019-04-25T00:54:55.300Z,81.12
2019-04-25T00:55:55.287Z,80.71
2019-04-25T00:56:55.270Z,80.71
2019-04-25T00:57:55.257Z,81.32
2019-04-25T00:58:55.249Z,81.26
2019-04-25T00:59:55.235Z,82.08
2019-04-25T01:00:55.242Z,82.28
2019-04-25T01:01:55.214Z,82.22
2019-04-25T01:02:55.209Z,82.12
2019-04-25T01:03:55.193Z,81.81
2019-04-25T01:04:55.184Z,81.91
2019-04-25T01:05:55.173Z,81.60
2019-04-25T01:06:55.171Z,82.53
2019-04-25T01:07:55.150Z,82.12
2019-04-25T01:08:55.925Z,82.22
2019-04-25T01:09:55.132Z,82.32
2019-04-25T01:10:55.120Z,82.18
2019-04-25T01:11:55.110Z,82.22
2019-04-25T01:12:55.106Z,81.91
2019-04-25T01:13:55.084Z,82.12
2019-04-25T01:14:55.088Z,82.32
2019-04-25T01:15:55.072Z,83.04
2019-04-25T01:16:55.052Z,83.79
2019-04-25T01:17:55.147Z,83.38
2019-04-25T01:18:55.590Z,84.00
2019-04-25T01:19:57.741Z,84.00
2019-04-25T01:20:55.463Z,84.30
2019-04-25T01:21:56.004Z,84.34
2019-04-25T01:22:56.993Z,84.44
2019-04-25T01:23:55.739Z,84.34
2019-04-25T01:24:55.992Z,84.65
2019-04-25T01:25:55.798Z,84.34
2019-04-25T01:26:55.865Z,84.75
2019-04-25T01:27:54.933Z,85.06
2019-04-25T01:28:54.988Z,85.91
2019-04-25T01:29:55.540Z,85.81
2019-04-25T01:30:55.160Z,85.91
2019-04-25T01:31:55.279Z,85.91
2019-04-25T01:32:55.410Z,85.50
2019-04-25T01:33:55.615Z,85.81
2019-04-25T01:34:58.584Z,85.81
2019-04-25T01:35:56.899Z,85.81
2019-04-25T01:36:55.834Z,85.81
2019-04-25T01:37:55.292Z,85.85
2019-04-25T01:38:56.564Z,85.75
2019-04-25T01:39:55.921Z,86.02
2019-04-25T01:40:55.610Z,85.85
2019-04-25T01:41:55.246Z,86.16
2019-04-25T01:42:54.990Z,85.85
2019-04-25T01:43:59.204Z,86.16
2019-04-25T01:44:56.879Z,85.96
2019-04-25T01:45:54.923Z,85.61
2019-04-25T01:46:55.574Z,85.75
2019-04-25T01:47:55.189Z,85.75
2019-04-25T01:48:55.427Z,85.64
2019-04-25T01:49:55.548Z,85.96
2019-04-25T01:50:55.482Z,85.85
2019-04-25T01:51:57.037Z,85.64
2019-04-25T01:52:55.626Z,85.75
2019-04-25T01:53:55.689Z,86.05
2019-04-25T01:54:55.792Z,85.85
2019-04-25T01:56:01.626Z,85.75
2019-04-25T01:56:56.211Z,86.20
2019-04-25T01:57:55.186Z,86.10
2019-04-25T01:58:55.034Z,86.05
2019-04-25T01:59:55.407Z,86.20
2019-04-25T02:00:56.079Z,86.30
2019-04-25T02:01:55.423Z,86.40
2019-04-25T02:02:54.923Z,86.51
2019-04-25T02:03:55.456Z,86.20
2019-04-25T02:04:56.852Z,86.61
2019-04-25T02:05:55.225Z,86.91
2019-04-25T02:06:54.929Z,86.75
2019-04-25T02:07:55.020Z,86.55
2019-04-25T02:08:55.273Z,86.81
2019-04-25T02:09:55.190Z,86.65
2019-04-25T02:10:56.773Z,86.96
2019-04-25T02:11:55.535Z,87.37
2019-04-25T02:12:55.293Z,87.47
2019-04-25T02:13:54.985Z,87.26
2019-04-25T02:14:55.690Z,87.88
2019-04-25T02:15:55.169Z,87.82
2019-04-25T02:16:55.949Z,87.92
2019-04-25T02:17:57.869Z,87.82
2019-04-25T02:18:55.546Z,88.39
2019-04-25T02:19:55.510Z,88.49
2019-04-25T02:20:57.537Z,88.80
2019-04-25T02:21:55.321Z,89.00
2019-04-25T02:22:55.263Z,88.90
2019-04-25T02:23:55.492Z,88.70
2019-04-25T02:24:55.660Z,88.84
2019-04-25T02:26:05.927Z,88.49
2019-04-25T02:26:56.319Z,88.43
2019-04-25T02:27:55.718Z,88.18
2019-04-25T02:28:55.150Z,87.47
2019-04-25T02:29:55.241Z,87.51
2019-04-25T02:30:58.352Z,87.77
2019-04-25T02:31:59.120Z,87.88
2019-04-25T02:32:58.176Z,87.92
2019-04-25T02:33:57.881Z,88.18
2019-04-25T02:34:59.099Z,88.49
2019-04-25T02:35:58.937Z,88.29
2019-04-25T02:36:58.882Z,87.98
2019-04-25T02:37:57.989Z,87.88
2019-04-25T02:38:59.551Z,88.12
2019-04-25T02:39:57.231Z,88.12
2019-04-25T02:40:56.268Z,87.88
2019-04-25T02:41:56.127Z,87.71
2019-04-25T02:42:55.860Z,87.98
2019-04-25T02:43:56.320Z,87.57
2019-04-25T02:44:57.865Z,87.51
2019-04-25T02:45:55.500Z,87.51
2019-04-25T02:46:55.879Z,87.37
2019-04-25T02:47:56.232Z,87.41
2019-04-25T02:48:56.189Z,87.92
2019-04-25T02:49:55.818Z,88.02
2019-04-25T02:50:56.453Z,88.02
2019-04-25T02:51:56.205Z,87.71
2019-04-25T02:52:55.700Z,87.61
2019-04-25T02:53:55.925Z,87.37
2019-04-25T02:54:55.617Z,87.71
2019-04-25T02:55:53.982Z,87.30
2019-04-25T02:56:54.737Z,87.30
2019-04-25T02:57:54.224Z,87.41
2019-04-25T02:58:54.387Z,87.76
2019-04-25T02:59:54.717Z,87.76
2019-04-25T03:01:03.413Z,87.85
2019-04-25T03:01:57.015Z,88.06
2019-04-25T03:02:54.761Z,87.85
2019-04-25T03:03:54.671Z,88.06
2019-04-25T03:04:54.614Z,87.76
2019-04-25T03:05:54.870Z,87.65
2019-04-25T03:06:55.505Z,87.96
2019-04-25T03:07:54.559Z,87.45
2019-04-25T03:08:54.358Z,87.76
2019-04-25T03:09:54.771Z,87.45
2019-04-25T03:10:54.429Z,86.90
2019-04-25T03:11:54.835Z,86.73
2019-04-25T03:12:54.421Z,86.63
2019-04-25T03:13:54.596Z,86.93
2019-04-25T03:14:55.032Z,86.73
2019-04-25T03:15:55.710Z,86.22
2019-04-25T03:16:54.321Z,86.32
2019-04-25T03:17:54.602Z,86.22
2019-04-25T03:18:54.449Z,86.32
2019-04-25T03:19:54.367Z,86.32
2019-04-25T03:20:54.855Z,86.11
2019-04-25T03:21:55.038Z,85.91
2019-04-25T03:22:54.719Z,86.11
2019-04-25T03:23:54.981Z,85.91
2019-04-25T03:24:54.890Z,85.39
2019-04-25T03:25:53.647Z,85.19
2019-04-25T03:26:53.636Z,85.39
2019-04-25T03:27:54.128Z,84.88
2019-04-25T03:28:53.825Z,84.78
2019-04-25T03:29:54.203Z,85.09
2019-04-25T03:30:54.886Z,84.78
2019-04-25T03:31:56.058Z,84.88
2019-04-25T03:32:56.184Z,84.68
2019-04-25T03:33:55.803Z,84.68
2019-04-25T03:34:54.881Z,86.01
2019-04-25T03:35:53.539Z,84.27
2019-04-25T03:36:53.768Z,84.47
2019-04-25T03:37:54.493Z,85.09
2019-04-25T03:38:54.203Z,84.78
2019-04-25T03:39:53.610Z,85.09
2019-04-25T03:40:53.906Z,84.17
2019-04-25T03:41:53.977Z,84.47
2019-04-25T03:42:53.825Z,84.68
2019-04-25T03:43:54.210Z,84.47
2019-04-25T03:44:53.869Z,86.01
2019-04-25T03:45:53.574Z,85.33
2019-04-25T03:46:53.522Z,85.23
2019-04-25T03:47:53.408Z,84.92
2019-04-25T03:48:53.962Z,85.13
2019-04-25T03:49:55.389Z,85.64
2019-04-25T03:50:54.065Z,85.54
2019-04-25T03:51:53.812Z,86.15
2019-04-25T03:52:54.057Z,86.15
2019-04-25T03:53:53.642Z,85.99
2019-04-25T03:54:53.527Z,86.19
2019-04-25T03:55:54.053Z,86.19
2019-04-25T03:56:55.885Z,86.15
2019-04-25T03:57:53.937Z,85.89
2019-04-25T03:58:54.008Z,85.99
2019-04-25T03:59:53.700Z,86.13
2019-04-25T04:00:54.510Z,86.24
2019-04-25T04:01:53.773Z,86.44
2019-04-25T04:02:53.742Z,86.54
2019-04-25T04:03:53.793Z,86.65
2019-04-25T04:04:53.778Z,86.54
2019-04-25T04:05:54.018Z,86.85
2019-04-25T04:06:53.739Z,86.65
2019-04-25T04:07:53.583Z,86.95
2019-04-25T04:08:53.873Z,86.85
2019-04-25T04:09:54.888Z,87.05
2019-04-25T04:10:54.349Z,86.65
2019-04-25T04:11:53.511Z,86.54
2019-04-25T04:12:54.263Z,86.33
2019-04-25T04:13:53.796Z,86.44
2019-04-25T04:14:53.761Z,86.24
2019-04-25T04:15:53.303Z,86.24
2019-04-25T04:16:53.902Z,86.24
2019-04-25T04:17:53.634Z,86.33
2019-04-25T04:18:54.086Z,86.44
2019-04-25T04:19:53.708Z,86.24
2019-04-25T04:20:53.492Z,86.95
2019-04-25T04:21:53.257Z,87.16
2019-04-25T04:22:53.353Z,86.89
2019-04-25T04:23:54.462Z,87.57
2019-04-25T04:24:53.805Z,87.05
2019-04-25T04:25:54.531Z,87.40
2019-04-25T04:27:03.080Z,87.05
2019-04-25T04:27:53.981Z,86.99
2019-04-25T04:28:53.386Z,87.26
2019-04-25T04:29:54.235Z,87.16
2019-04-25T04:30:54.115Z,86.65
2019-04-25T04:31:54.400Z,86.95
2019-04-25T04:32:53.662Z,86.85
2019-04-25T04:33:53.179Z,87.05
2019-04-25T04:34:53.714Z,86.85
2019-04-25T04:35:54.284Z,87.05
2019-04-25T04:36:53.706Z,86.85
2019-04-25T04:37:54.204Z,86.85
2019-04-25T04:38:54.328Z,86.33
2019-04-25T04:39:53.598Z,86.65
2019-04-25T04:40:52.833Z,86.33
2019-04-25T04:41:53.544Z,86.65
2019-04-25T04:42:53.367Z,87.05
2019-04-25T04:43:54.134Z,86.95
2019-04-25T04:44:53.484Z,86.54
2019-04-25T04:45:54.104Z,86.95
2019-04-25T04:46:53.846Z,86.33
2019-04-25T04:47:53.350Z,86.24
2019-04-25T04:48:54.049Z,86.65
2019-04-25T04:49:53.979Z,86.44
2019-04-25T04:50:53.488Z,86.54
2019-04-25T04:51:54.166Z,86.65
2019-04-25T04:52:54.020Z,86.44
2019-04-25T04:53:53.713Z,86.44
2019-04-25T04:55:03.700Z,86.44
2019-04-25T04:55:54.365Z,86.44
2019-04-25T04:56:53.664Z,86.40
2019-04-25T04:57:54.172Z,85.89
2019-04-25T04:58:53.963Z,86.09
2019-04-25T04:59:53.610Z,85.99
2019-04-25T05:00:53.717Z,86.19
2019-04-25T05:01:53.278Z,85.38
2019-04-25T05:02:53.384Z,85.38
2019-04-25T05:03:54.030Z,85.27
2019-04-25T05:04:53.623Z,85.23
2019-04-25T05:05:53.564Z,84.72
2019-04-25T05:06:53.709Z,84.72
2019-04-25T05:07:53.904Z,84.82
2019-04-25T05:08:53.195Z,85.03
2019-04-25T05:09:53.492Z,84.72
2019-04-25T05:10:54.073Z,85.03
2019-04-25T05:11:53.983Z,84.61
2019-04-25T05:12:53.275Z,85.13
2019-04-25T05:13:53.753Z,84.72
2019-04-25T05:14:53.692Z,84.82
2019-04-25T05:15:53.253Z,84.31
2019-04-25T05:16:53.281Z,84.20
2019-04-25T05:17:53.953Z,83.96
2019-04-25T05:18:55.092Z,84.17
2019-04-25T05:19:53.266Z,83.76
2019-04-25T05:20:54.156Z,83.10
2019-04-25T05:21:53.711Z,82.93
2019-04-25T05:22:54.576Z,84.53
2019-04-25T05:23:54.209Z,83.61
2019-04-25T05:24:53.547Z,82.79
2019-04-25T05:25:52.338Z,83.00
2019-04-25T05:26:53.901Z,82.45
2019-04-25T05:28:00.752Z,82.59
2019-04-25T05:28:54.819Z,82.55
2019-04-25T05:29:53.881Z,82.39
2019-04-25T05:30:53.523Z,82.08
2019-04-25T05:31:53.775Z,82.45
2019-04-25T05:32:54.240Z,82.79
2019-04-25T05:33:53.640Z,82.39
2019-04-25T05:34:53.254Z,82.79
2019-04-25T05:35:53.783Z,82.65
2019-04-25T05:36:53.780Z,82.65
2019-04-25T05:37:53.335Z,82.65
2019-04-25T05:38:53.816Z,82.04
2019-04-25T05:39:53.546Z,81.22
2019-04-25T05:40:53.814Z,81.94
2019-04-25T05:41:52.168Z,81.79
2019-04-25T05:42:52.157Z,80.98
2019-04-25T05:43:53.538Z,80.36
2019-04-25T05:44:52.135Z,80.57
2019-04-25T05:45:52.138Z,79.20
2019-04-25T05:46:52.112Z,79.16
2019-04-25T05:47:52.102Z,78.45
2019-04-25T05:48:53.681Z,78.24
2019-04-25T05:49:52.080Z,77.86
2019-04-25T05:50:53.681Z,76.84
2019-04-25T05:51:53.466Z,76.19
2019-04-25T05:52:52.047Z,75.44
2019-04-25T05:53:52.036Z,75.17
2019-04-25T05:54:52.026Z,75.54
2019-04-25T05:55:52.015Z,74.63
2019-04-25T05:56:53.642Z,73.67
2019-04-25T05:57:53.518Z,73.16
2019-04-25T05:58:53.213Z,72.62
2019-04-25T05:59:53.642Z,72.82
2019-04-25T06:00:51.960Z,71.26
2019-04-25T06:01:53.689Z,71.73
2019-04-25T06:02:53.361Z,70.58
2019-04-25T06:03:53.562Z,69.36
2019-04-25T06:04:53.495Z,68.85
2019-04-25T06:05:53.256Z,69.15
2019-04-25T06:06:53.047Z,69.53
2019-04-25T06:07:51.902Z,69.02
2019-04-25T06:08:51.875Z,67.90
2019-04-25T06:09:51.874Z,68.92
2019-04-25T06:10:51.857Z,67.36
2019-04-25T06:11:53.308Z,67.49
2019-04-25T06:12:53.548Z,67.77
2019-04-25T06:13:53.185Z,68.07
2019-04-25T06:14:52.961Z,68.82
2019-04-25T06:15:53.302Z,68.48
2019-04-25T06:16:51.786Z,67.60
2019-04-25T06:17:53.362Z,67.69
2019-04-25T06:18:51.767Z,68.62
2019-04-25T06:19:53.303Z,68.62
2019-04-25T06:20:51.744Z,67.29
2019-04-25T06:21:53.430Z,67.69
2019-04-25T06:22:53.357Z,67.69
2019-04-25T06:23:51.711Z,66.75
2019-04-25T06:24:51.699Z,67.05
2019-04-25T06:25:51.690Z,66.28
2019-04-25T06:26:51.678Z,65.67
2019-04-25T06:27:57.215Z,65.57
2019-04-25T06:28:59.039Z,64.62
2019-04-25T06:29:59.017Z,65.10
2019-04-25T06:30:54.006Z,64.70
2019-04-25T06:32:03.371Z,63.65
2019-04-25T06:32:53.299Z,63.95
2019-04-25T06:33:53.769Z,63.11
2019-04-25T06:34:51.602Z,63.42
2019-04-25T06:35:51.579Z,61.90
2019-04-25T06:36:51.567Z,62.84
2019-04-25T06:37:51.557Z,62.63
2019-04-25T06:38:51.562Z,62.60
2019-04-25T06:39:51.538Z,62.71
2019-04-25T06:40:51.525Z,62.81
2019-04-25T06:41:51.514Z,63.01
2019-04-25T06:42:51.502Z,62.60
2019-04-25T06:43:51.493Z,63.14
2019-04-25T06:44:51.491Z,63.21
2019-04-25T06:45:51.473Z,62.81
2019-04-25T06:46:51.460Z,62.20
2019-04-25T06:47:51.447Z,61.46
2019-04-25T06:48:51.437Z,61.36
2019-04-25T06:49:53.163Z,62.07
2019-04-25T06:50:51.426Z,62.60
2019-04-25T06:51:51.407Z,62.10
2019-04-25T06:52:51.393Z,62.30
2019-04-25T06:53:51.384Z,61.90
2019-04-25T06:54:51.372Z,62.51
2019-04-25T06:55:51.360Z,62.81
2019-04-25T06:56:51.360Z,63.14
2019-04-25T06:57:51.339Z,62.60
2019-04-25T06:58:51.327Z,61.99
2019-04-25T06:59:51.317Z,62.17
2019-04-25T07:00:58.920Z,61.13
2019-04-25T07:01:54.106Z,60.82
2019-04-25T07:02:51.284Z,58.97
2019-04-25T07:03:51.274Z,59.58
2019-04-25T07:04:51.611Z,59.99
2019-04-25T07:05:51.253Z,59.68
2019-04-25T07:06:51.242Z,60.69
2019-04-25T07:07:51.250Z,60.39
2019-04-25T07:08:51.223Z,60.28
2019-04-25T07:09:51.232Z,58.67
2019-04-25T07:10:51.203Z,58.94
2019-04-25T07:11:51.189Z,59.25
2019-04-25T07:12:51.179Z,58.64
2019-04-25T07:13:51.177Z,58.84
2019-04-25T07:14:51.159Z,57.75
2019-04-25T07:15:51.155Z,56.44
2019-04-25T07:16:51.135Z,58.16
2019-04-25T07:17:51.123Z,59.38
2019-04-25T07:18:51.115Z,59.45
2019-04-25T07:19:51.113Z,58.13
2019-04-25T07:20:51.097Z,57.70
2019-04-25T07:21:51.080Z,58.51
2019-04-25T07:22:51.072Z,57.17
2019-04-25T07:23:51.058Z,58.45
2019-04-25T07:24:51.053Z,56.13
2019-04-25T07:25:51.047Z,55.11
2019-04-25T07:26:51.025Z,55.42
2019-04-25T07:27:51.043Z,56.23
2019-04-25T07:28:51.004Z,55.90
2019-04-25T07:29:50.998Z,55.02
2019-04-25T07:30:52.676Z,54.82
2019-04-25T07:31:50.982Z,56.53
2019-04-25T07:32:50.961Z,56.51
2019-04-25T07:33:50.952Z,56.20
2019-04-25T07:34:50.939Z,56.10
2019-04-25T07:35:50.929Z,57.24
2019-04-25T07:36:50.918Z,55.62
2019-04-25T07:37:50.925Z,56.84
2019-04-25T07:39:04.960Z,56.13
2019-04-25T07:39:51.884Z,56.46
2019-04-25T07:40:50.874Z,56.05
2019-04-25T07:41:50.864Z,55.93
2019-04-25T07:42:50.851Z,56.46
2019-04-25T07:43:50.854Z,56.15
2019-04-25T07:44:53.422Z,56.76
2019-04-25T07:45:50.820Z,56.18
2019-04-25T07:46:50.811Z,56.21
2019-04-25T07:47:50.890Z,57.29
2019-04-25T07:48:50.809Z,56.28
2019-04-25T07:49:50.792Z,57.40
2019-04-25T07:50:50.768Z,56.18
2019-04-25T07:51:50.754Z,56.08
2019-04-25T07:52:50.743Z,56.89
2019-04-25T07:53:50.733Z,56.18
2019-04-25T07:54:50.722Z,56.69
2019-04-25T07:55:50.729Z,55.85
2019-04-25T07:56:50.702Z,55.44
2019-04-25T07:57:50.688Z,55.95
2019-04-25T07:58:52.729Z,55.62
2019-04-25T07:59:52.145Z,54.82
2019-04-25T08:00:50.657Z,54.49
2019-04-25T08:01:50.654Z,54.18
2019-04-25T08:02:50.633Z,55.67
2019-04-25T08:03:50.628Z,52.94
2019-04-25T08:04:50.616Z,52.34
2019-04-25T08:05:50.603Z,53.55
2019-04-25T08:06:50.590Z,53.55
2019-04-25T08:07:50.590Z,53.45
2019-04-25T08:08:50.570Z,52.34
2019-04-25T08:09:50.562Z,52.54
2019-04-25T08:10:50.549Z,53.45
2019-04-25T08:11:50.536Z,53.25
2019-04-25T08:12:50.525Z,52.31
2019-04-25T08:13:50.525Z,52.51
2019-04-25T08:14:50.508Z,52.23
2019-04-25T08:15:50.493Z,51.40
2019-04-25T08:16:50.484Z,52.49
2019-04-25T08:17:50.472Z,51.35
2019-04-25T08:18:50.462Z,52.06
2019-04-25T08:19:50.462Z,51.13
2019-04-25T08:20:50.439Z,50.30
2019-04-25T08:21:50.428Z,51.51
2019-04-25T08:22:57.101Z,49.67
2019-04-25T08:23:51.405Z,48.76
2019-04-25T08:24:50.396Z,49.09
2019-04-25T08:25:50.399Z,49.57
2019-04-25T08:26:50.375Z,49.90
2019-04-25T08:27:50.363Z,49.90
2019-04-25T08:28:55.763Z,48.89
2019-04-25T08:29:51.341Z,49.69
2019-04-25T08:30:50.334Z,50.90
2019-04-25T08:31:50.332Z,50.30
2019-04-25T08:32:50.309Z,49.21
2019-04-25T08:33:50.298Z,50.24
2019-04-25T08:34:50.289Z,48.93
2019-04-25T08:36:04.442Z,50.55
2019-04-25T08:36:51.276Z,50.45
2019-04-25T08:37:50.256Z,51.15
2019-04-25T08:38:50.254Z,51.76
2019-04-25T08:39:50.236Z,51.35
2019-04-25T08:40:50.224Z,50.45
2019-04-25T08:41:50.212Z,51.45
2019-04-25T08:42:50.219Z,50.45
2019-04-25T08:43:50.191Z,50.75
2019-04-25T08:44:50.183Z,50.47
2019-04-25T08:45:50.168Z,50.27
2019-04-25T08:46:50.158Z,50.47
2019-04-25T08:47:50.147Z,50.95
2019-04-25T08:48:50.153Z,50.35
2019-04-25T08:49:50.126Z,50.57
2019-04-25T08:50:50.116Z,50.37
2019-04-25T08:51:50.105Z,51.48
2019-04-25T08:52:50.098Z,51.38
2019-04-25T08:53:50.085Z,52.47
2019-04-25T08:54:50.083Z,51.05
2019-04-25T08:55:50.061Z,51.56
2019-04-25T08:56:50.050Z,50.45
2019-04-25T08:57:50.040Z,50.24
2019-04-25T08:59:03.202Z,51.25
2019-04-25T08:59:52.882Z,49.92
2019-04-25T09:00:59.354Z,50.04
2019-04-25T09:01:51.003Z,50.12
2019-04-25T09:02:49.988Z,50.62
2019-04-25T09:03:49.975Z,49.99
2019-04-25T09:04:49.964Z,48.58
2019-04-25T09:05:49.989Z,47.47
2019-04-25T09:06:49.944Z,48.89
2019-04-25T09:07:49.932Z,49.16
2019-04-25T09:08:49.921Z,48.56
2019-04-25T09:09:49.912Z,47.45
2019-04-25T09:10:49.899Z,48.06
2019-04-25T09:11:49.898Z,48.56
2019-04-25T09:12:49.877Z,48.24
2019-04-25T09:13:49.872Z,47.74
2019-04-25T09:14:49.858Z,46.75
2019-04-25T09:15:49.846Z,48.06
2019-04-25T09:16:49.839Z,48.16
2019-04-25T09:17:49.836Z,48.06
2019-04-25T09:18:49.814Z,47.35
2019-04-25T09:19:49.803Z,47.25
2019-04-25T09:20:49.793Z,46.25
2019-04-25T09:21:49.781Z,47.55
2019-04-25T09:22:49.770Z,47.35
2019-04-25T09:23:49.773Z,47.63
2019-04-25T09:24:49.754Z,47.51
2019-04-25T09:25:49.737Z,46.20
2019-04-25T09:26:49.726Z,46.00
2019-04-25T09:27:49.715Z,46.50
2019-04-25T09:28:49.704Z,45.98
2019-04-25T09:29:49.705Z,47.49
2019-04-25T09:30:49.683Z,48.67
2019-04-25T09:31:49.677Z,46.54
2019-04-25T09:32:49.662Z,45.35
2019-04-25T09:33:49.651Z,44.73
2019-04-25T09:34:50.130Z,45.65
2019-04-25T09:35:49.640Z,45.78
2019-04-25T09:36:49.618Z,45.37
2019-04-25T09:37:49.607Z,45.78
2019-04-25T09:38:49.597Z,45.87
2019-04-25T09:39:49.590Z,44.85
2019-04-25T09:40:49.576Z,45.35
2019-04-25T09:41:49.581Z,45.45
2019-04-25T09:42:49.556Z,45.25
2019-04-25T09:43:49.543Z,45.63
2019-04-25T09:44:49.538Z,46.06
2019-04-25T09:45:49.521Z,45.98
2019-04-25T09:46:49.511Z,45.39
2019-04-25T09:47:49.512Z,46.70
2019-04-25T09:48:49.489Z,46.40
2019-04-25T09:49:49.478Z,46.22
2019-04-25T09:50:49.467Z,46.33
2019-04-25T09:51:49.460Z,46.62
2019-04-25T09:52:49.449Z,46.65
2019-04-25T09:53:51.270Z,47.03
2019-04-25T09:54:49.424Z,47.66
2019-04-25T09:55:49.414Z,47.66
2019-04-25T09:56:49.403Z,47.75
2019-04-25T09:57:49.396Z,47.55
2019-04-25T09:58:49.511Z,47.13
2019-04-25T09:59:49.381Z,47.43
2019-04-25T10:00:49.360Z,48.01
2019-04-25T10:01:49.350Z,46.70
2019-04-25T10:02:49.340Z,47.41
2019-04-25T10:03:49.329Z,47.41
2019-04-25T10:04:49.319Z,47.61
2019-04-25T10:05:49.319Z,47.41
2019-04-25T10:06:49.297Z,47.71
2019-04-25T10:07:49.288Z,48.29
2019-04-25T10:08:49.275Z,48.19
2019-04-25T10:09:49.271Z,47.46
2019-04-25T10:10:49.254Z,46.94
2019-04-25T10:11:49.257Z,45.45
2019-04-25T10:12:49.979Z,46.18
2019-04-25T10:13:49.222Z,46.08
2019-04-25T10:14:49.211Z,47.39
2019-04-25T10:15:49.199Z,47.61
2019-04-25T10:16:49.190Z,47.53
2019-04-25T10:17:49.187Z,48.26
2019-04-25T10:18:49.166Z,48.36
2019-04-25T10:19:49.154Z,48.26
2019-04-25T10:20:49.474Z,47.86
2019-04-25T10:21:49.696Z,48.74
2019-04-25T10:22:49.122Z,48.16
2019-04-25T10:23:51.213Z,48.56
2019-04-25T10:24:59.932Z,48.36
2019-04-25T10:25:50.090Z,47.55
2019-04-25T10:26:49.079Z,47.86
2019-04-25T10:27:49.409Z,48.46
2019-04-25T10:28:49.609Z,48.26
2019-04-25T10:29:53.610Z,47.45
2019-04-25T10:30:50.035Z,48.34
2019-04-25T10:31:49.220Z,48.44
2019-04-25T10:32:49.014Z,47.83
2019-04-25T10:33:49.004Z,49.32
2019-04-25T10:34:49.028Z,48.01
2019-04-25T10:35:53.080Z,47.91
2019-04-25T10:36:49.969Z,47.61
2019-04-25T10:37:48.959Z,48.52
2019-04-25T10:39:01.915Z,48.11
2019-04-25T10:39:49.937Z,48.90
2019-04-25T10:40:48.927Z,47.28
2019-04-25T10:41:49.589Z,47.41
2019-04-25T10:42:50.579Z,46.98
2019-04-25T10:43:48.898Z,47.39
2019-04-25T10:44:48.885Z,47.59
2019-04-25T10:45:48.873Z,47.41
2019-04-25T10:46:48.868Z,48.21
2019-04-25T10:47:49.440Z,48.61
2019-04-25T10:48:48.840Z,47.71
2019-04-25T10:49:49.500Z,48.99
2019-04-25T10:50:48.818Z,48.09
2019-04-25T10:51:48.807Z,48.19
2019-04-25T10:52:48.797Z,48.49
2019-04-25T10:53:48.860Z,48.19
2019-04-25T10:54:48.775Z,48.69
2019-04-25T10:55:49.686Z,47.39
2019-04-25T10:56:48.752Z,47.39
2019-04-25T10:57:48.741Z,47.41
2019-04-25T10:58:48.731Z,48.52
2019-04-25T11:00:00.778Z,48.92
2019-04-25T11:00:49.709Z,49.42
2019-04-25T11:01:48.960Z,49.02
2019-04-25T11:02:49.686Z,47.81
2019-04-25T11:03:48.676Z,49.42
2019-04-25T11:04:49.785Z,48.01
2019-04-25T11:05:49.797Z,49.02
2019-04-25T11:06:49.326Z,49.42
2019-04-25T11:07:48.688Z,49.30
2019-04-25T11:08:49.148Z,48.99
2019-04-25T11:09:49.179Z,47.77
2019-04-25T11:10:49.928Z,48.97
2019-04-25T11:11:48.599Z,48.19
2019-04-25T11:12:49.295Z,47.36
2019-04-25T11:13:48.658Z,47.46
2019-04-25T11:14:48.796Z,48.77
2019-04-25T11:15:48.559Z,47.77
2019-04-25T11:16:48.534Z,47.26
2019-04-25T11:17:48.540Z,48.97
2019-04-25T11:18:49.566Z,48.25
2019-04-25T11:19:49.217Z,48.07
2019-04-25T11:20:48.492Z,48.05
2019-04-25T11:21:48.481Z,47.64
2019-04-25T11:22:49.384Z,48.55
2019-04-25T11:23:49.086Z,47.74
2019-04-25T11:24:48.659Z,46.84
2019-04-25T11:25:48.442Z,47.64
2019-04-25T11:26:50.453Z,47.02
2019-04-25T11:27:49.921Z,47.52
2019-04-25T11:28:48.811Z,47.12
2019-04-25T11:29:48.592Z,48.12
2019-04-25T11:30:48.387Z,47.94
2019-04-25T11:31:48.949Z,48.02
2019-04-25T11:32:48.364Z,47.42
2019-04-25T11:33:48.353Z,47.72
2019-04-25T11:34:48.342Z,47.52
2019-04-25T11:35:49.038Z,47.22
2019-04-25T11:36:48.514Z,46.72
2019-04-25T11:37:48.427Z,45.51
2019-04-25T11:38:48.300Z,47.32
2019-04-25T11:39:48.290Z,46.81
2019-04-25T11:40:50.239Z,45.73
2019-04-25T11:41:49.435Z,46.26
2019-04-25T11:42:48.314Z,47.74
2019-04-25T11:43:48.724Z,47.54
2019-04-25T11:44:48.237Z,47.34
2019-04-25T11:45:49.196Z,48.35
2019-04-25T11:46:48.215Z,48.75
2019-04-25T11:47:48.439Z,47.72
2019-04-25T11:48:48.197Z,47.22
2019-04-25T11:49:49.078Z,47.62
2019-04-25T11:50:50.352Z,48.12
2019-04-25T11:51:48.210Z,47.72
2019-04-25T11:52:48.154Z,45.49
2019-04-25T11:53:48.465Z,45.51
2019-04-25T11:54:48.222Z,45.10
2019-04-25T11:55:49.323Z,45.99
2019-04-25T11:56:48.626Z,47.19
2019-04-25T11:57:50.089Z,46.07
2019-04-25T11:58:48.906Z,46.47
2019-04-25T11:59:49.550Z,45.26
2019-04-25T12:00:48.861Z,46.25
2019-04-25T12:01:48.057Z,46.35
2019-04-25T12:02:48.045Z,44.14
2019-04-25T12:03:48.935Z,45.25
2019-04-25T12:04:48.953Z,46.75
2019-04-25T12:05:49.184Z,43.44
2019-04-25T12:06:48.000Z,43.24
2019-04-25T12:07:47.993Z,44.24
2019-04-25T12:08:49.075Z,43.56
2019-04-25T12:09:48.166Z,43.76
2019-04-25T12:10:47.957Z,44.87
2019-04-25T12:11:48.508Z,45.84
2019-04-25T12:12:47.993Z,44.42
2019-04-25T12:13:48.130Z,43.44
2019-04-25T12:14:47.917Z,43.74
2019-04-25T12:15:47.901Z,43.94
2019-04-25T12:16:50.325Z,44.84
2019-04-25T12:17:47.891Z,44.36
2019-04-25T12:18:50.148Z,44.36
2019-04-25T12:19:47.858Z,44.24
2019-04-25T12:20:48.714Z,43.14
2019-04-25T12:21:48.214Z,43.74
2019-04-25T12:22:48.269Z,43.84
2019-04-25T12:23:48.744Z,43.24
2019-04-25T12:24:47.968Z,43.54
2019-04-25T12:25:47.793Z,43.24
2019-04-25T12:26:48.714Z,43.34
2019-04-25T12:27:49.784Z,43.22
2019-04-25T12:28:47.761Z,41.61
2019-04-25T12:29:47.761Z,41.41
2019-04-25T12:30:47.739Z,42.03
2019-04-25T12:31:47.751Z,41.83
2019-04-25T12:32:47.912Z,42.74
2019-04-25T12:33:49.090Z,41.63
2019-04-25T12:34:47.697Z,42.02
2019-04-25T12:35:47.949Z,41.74
2019-04-25T12:36:48.442Z,41.43
2019-04-25T12:37:48.125Z,41.21
2019-04-25T12:38:48.358Z,41.93
2019-04-25T12:39:48.522Z,41.03
2019-04-25T12:40:48.195Z,41.91
2019-04-25T12:41:49.074Z,42.21
2019-04-25T12:42:47.882Z,41.43
2019-04-25T12:43:47.602Z,41.53
2019-04-25T12:44:48.812Z,41.74
2019-04-25T12:45:47.578Z,41.74
2019-04-25T12:46:48.518Z,41.33
2019-04-25T12:47:47.669Z,41.03
2019-04-25T12:48:47.680Z,41.13
2019-04-25T12:49:48.597Z,41.33
2019-04-25T12:50:47.905Z,40.93
2019-04-25T12:51:47.787Z,40.13
2019-04-25T12:52:48.632Z,40.91